sensor_id;sensor_type;location;lat;lon;timestamp;pressure;altitude;pressure_sealevel;temperature;humidity
65359;BME280;52491;45.900;6.346;2023-01-29T00:01:09;94224.72;;;22.81;22.47
65359;BME280;52491;45.900;6.346;2023-01-29T00:03:35;94227.38;;;22.81;22.37
65359;BME280;52491;45.900;6.346;2023-01-29T00:06:06;94223.66;;;22.82;22.35
65359;BME280;52491;45.900;6.346;2023-01-29T00:08:36;94221.50;;;22.78;22.31
65359;BME280;52491;45.900;6.346;2023-01-29T00:11:03;94230.53;;;22.77;22.15
65359;BME280;52491;45.900;6.346;2023-01-29T00:13:29;94236.66;;;22.78;22.04
65359;BME280;52491;45.900;6.346;2023-01-29T00:15:56;94245.69;;;22.77;22.06
65359;BME280;52491;45.900;6.346;2023-01-29T00:18:23;94244.84;;;22.76;22.04
65359;BME280;52491;45.900;6.346;2023-01-29T00:20:49;94240.59;;;22.75;22.03
65359;BME280;52491;45.900;6.346;2023-01-29T00:23:15;94234.47;;;22.75;22.01
65359;BME280;52491;45.900;6.346;2023-01-29T00:25:41;94242.69;;;22.73;22.05
65359;BME280;52491;45.900;6.346;2023-01-29T00:28:07;94233.91;;;22.73;22.00
65359;BME280;52491;45.900;6.346;2023-01-29T00:30:34;94251.47;;;22.74;22.00
65359;BME280;52491;45.900;6.346;2023-01-29T00:32:59;94246.63;;;22.71;21.79
65359;BME280;52491;45.900;6.346;2023-01-29T00:35:25;94252.78;;;22.71;21.85
65359;BME280;52491;45.900;6.346;2023-01-29T00:37:51;94240.78;;;22.69;21.77
65359;BME280;52491;45.900;6.346;2023-01-29T00:40:16;94248.75;;;22.69;21.76
65359;BME280;52491;45.900;6.346;2023-01-29T00:42:45;94241.00;;;22.67;21.69
65359;BME280;52491;45.900;6.346;2023-01-29T00:45:30;94242.28;;;22.65;21.62
65359;BME280;52491;45.900;6.346;2023-01-29T00:47:55;94242.28;;;22.65;21.77
65359;BME280;52491;45.900;6.346;2023-01-29T00:50:21;94237.25;;;22.63;21.67
65359;BME280;52491;45.900;6.346;2023-01-29T00:52:46;94242.28;;;22.65;21.61
65359;BME280;52491;45.900;6.346;2023-01-29T00:55:14;94237.25;;;22.63;21.48
65359;BME280;52491;45.900;6.346;2023-01-29T00:57:39;94241.19;;;22.61;21.45
65359;BME280;52491;45.900;6.346;2023-01-29T01:00:10;94237.47;;;22.62;21.56
65359;BME280;52491;45.900;6.346;2023-01-29T01:02:36;94230.56;;;22.61;21.48
65359;BME280;52491;45.900;6.346;2023-01-29T01:05:20;94228.38;;;22.58;21.38
65359;BME280;52491;45.900;6.346;2023-01-29T01:07:50;94228.91;;;22.60;21.30
65359;BME280;52491;45.900;6.346;2023-01-29T01:10:19;94234.50;;;22.58;21.37
65359;BME280;52491;45.900;6.346;2023-01-29T01:13:04;94245.13;;;22.58;21.49
65359;BME280;52491;45.900;6.346;2023-01-29T01:15:36;94241.09;;;22.55;21.44
65359;BME280;52491;45.900;6.346;2023-01-29T01:18:03;94243.75;;;22.55;21.32
65359;BME280;52491;45.900;6.346;2023-01-29T01:20:30;94242.13;;;22.54;21.33
65359;BME280;52491;45.900;6.346;2023-01-29T01:22:56;94238.66;;;22.54;21.35
65359;BME280;52491;45.900;6.346;2023-01-29T01:25:24;94239.47;;;22.54;21.31
65359;BME280;52491;45.900;6.346;2023-01-29T01:27:53;94241.31;;;22.54;21.11
65359;BME280;52491;45.900;6.346;2023-01-29T01:30:20;94237.28;;;22.51;21.17
65359;BME280;52491;45.900;6.346;2023-01-29T01:32:46;94245.25;;;22.51;21.18
65359;BME280;52491;45.900;6.346;2023-01-29T01:35:13;94246.91;;;22.52;21.03
65359;BME280;52491;45.900;6.346;2023-01-29T01:37:41;94246.09;;;22.52;21.02
65359;BME280;52491;45.900;6.346;2023-01-29T01:40:13;94246.63;;;22.54;21.08
65359;BME280;52491;45.900;6.346;2023-01-29T01:42:49;94254.06;;;22.52;20.96
65359;BME280;52491;45.900;6.346;2023-01-29T01:45:33;94258.31;;;22.53;20.92
65359;BME280;52491;45.900;6.346;2023-01-29T01:48:43;94256.47;;;22.53;20.97
65359;BME280;52491;45.900;6.346;2023-01-29T01:50:59;94265.25;;;22.54;21.04
65359;BME280;52491;45.900;6.346;2023-01-29T01:53:37;94267.09;;;22.53;20.90
65359;BME280;52491;45.900;6.346;2023-01-29T01:56:07;94270.00;;;22.52;20.95
65359;BME280;52491;45.900;6.346;2023-01-29T01:58:36;94273.69;;;22.51;20.86
65359;BME280;52491;45.900;6.346;2023-01-29T02:01:06;94276.34;;;22.51;21.01
65359;BME280;52491;45.900;6.346;2023-01-29T02:03:36;94278.22;;;22.50;20.84
65359;BME280;52491;45.900;6.346;2023-01-29T02:06:21;94273.38;;;22.47;20.87
65359;BME280;52491;45.900;6.346;2023-01-29T02:09:13;94280.88;;;22.50;20.80
65359;BME280;52491;45.900;6.346;2023-01-29T02:11:56;94279.50;;;22.48;20.93
65359;BME280;52491;45.900;6.346;2023-01-29T02:14:22;94273.38;;;22.47;20.72
65359;BME280;52491;45.900;6.346;2023-01-29T02:16:47;94276.03;;;22.47;20.67
65359;BME280;52491;45.900;6.346;2023-01-29T02:19:22;94274.97;;;22.48;20.89
65359;BME280;52491;45.900;6.346;2023-01-29T02:24:49;94279.81;;;22.51;20.61
65359;BME280;52491;45.900;6.346;2023-01-29T02:30:24;94282.72;;;22.50;20.80
65359;BME280;52491;45.900;6.346;2023-01-29T02:32:59;94298.41;;;22.51;20.67
65359;BME280;52491;45.900;6.346;2023-01-29T02:35:31;94297.38;;;22.52;20.60
65359;BME280;52491;45.900;6.346;2023-01-29T02:46:03;94295.75;;;22.51;20.52
65359;BME280;52491;45.900;6.346;2023-01-29T02:48:54;94301.91;;;22.52;20.50
65359;BME280;52491;45.900;6.346;2023-01-29T02:54:16;94291.25;;;22.52;20.46
65359;BME280;52491;45.900;6.346;2023-01-29T02:56:54;94294.47;;;22.54;20.43
65359;BME280;52491;45.900;6.346;2023-01-29T02:59:28;94298.75;;;22.55;20.42
65359;BME280;52491;45.900;6.346;2023-01-29T03:02:09;94312.03;;;22.55;20.57
65359;BME280;52491;45.900;6.346;2023-01-29T03:04:41;94316.53;;;22.54;20.27
65359;BME280;52491;45.900;6.346;2023-01-29T03:07:15;94326.13;;;22.55;20.43
65359;BME280;52491;45.900;6.346;2023-01-29T03:09:49;94329.81;;;22.54;20.45
65359;BME280;52491;45.900;6.346;2023-01-29T03:12:27;94331.44;;;22.55;20.26
65359;BME280;52491;45.900;6.346;2023-01-29T03:15:00;94335.94;;;22.55;20.29
65359;BME280;52491;45.900;6.346;2023-01-29T03:17:43;94329.59;;;22.56;20.37
65359;BME280;52491;45.900;6.346;2023-01-29T03:20:14;94330.38;;;22.56;20.31
65359;BME280;52491;45.900;6.346;2023-01-29T03:22:45;94340.22;;;22.56;20.26
65359;BME280;52491;45.900;6.346;2023-01-29T03:25:13;94339.63;;;22.54;20.18
65359;BME280;52491;45.900;6.346;2023-01-29T03:28:00;94342.28;;;22.54;20.27
65359;BME280;52491;45.900;6.346;2023-01-29T03:30:56;94344.72;;;22.55;20.15
65359;BME280;52491;45.900;6.346;2023-01-29T03:33:47;94349.47;;;22.53;20.24
65359;BME280;52491;45.900;6.346;2023-01-29T03:36:20;94357.22;;;22.55;20.12
65359;BME280;52491;45.900;6.346;2023-01-29T03:38:47;94358.81;;;22.56;20.10
65359;BME280;52491;45.900;6.346;2023-01-29T03:43:51;94356.72;;;22.58;20.13
65359;BME280;52491;45.900;6.346;2023-01-29T03:46:26;94359.50;;;22.51;20.27
65359;BME280;52491;45.900;6.346;2023-01-29T03:49:21;94363.31;;;22.55;20.16
65359;BME280;52491;45.900;6.346;2023-01-29T03:52:06;94356.94;;;22.56;20.16
65359;BME280;52491;45.900;6.346;2023-01-29T03:54:38;94356.16;;;22.56;20.03
65359;BME280;52491;45.900;6.346;2023-01-29T03:57:45;94357.53;;;22.59;20.05
65359;BME280;52491;45.900;6.346;2023-01-29T04:00:22;94359.88;;;22.55;20.04
65359;BME280;52491;45.900;6.346;2023-01-29T04:02:59;94363.31;;;22.55;20.00
65359;BME280;52491;45.900;6.346;2023-01-29T04:05:32;94356.16;;;22.56;20.08
65359;BME280;52491;45.900;6.346;2023-01-29T04:08:05;94354.06;;;22.58;19.87
65359;BME280;52491;45.900;6.346;2023-01-29T04:10:33;94354.88;;;22.59;19.96
65359;BME280;52491;45.900;6.346;2023-01-29T04:13:05;94354.88;;;22.59;19.89
65359;BME280;52491;45.900;6.346;2023-01-29T04:15:41;94357.28;;;22.60;20.02
65359;BME280;52491;45.900;6.346;2023-01-29T04:18:08;94348.75;;;22.58;20.04
65359;BME280;52491;45.900;6.346;2023-01-29T04:20:34;94353.00;;;22.59;19.87
65359;BME280;52491;45.900;6.346;2023-01-29T04:23:00;94348.50;;;22.60;19.89
65359;BME280;52491;45.900;6.346;2023-01-29T04:25:29;94347.69;;;22.59;19.85
65359;BME280;52491;45.900;6.346;2023-01-29T04:28:27;94346.19;;;22.63;19.82
65359;BME280;52491;45.900;6.346;2023-01-29T04:31:02;94351.16;;;22.60;19.87
65359;BME280;52491;45.900;6.346;2023-01-29T04:33:35;94340.31;;;22.61;19.74
65359;BME280;52491;45.900;6.346;2023-01-29T04:36:16;94341.91;;;22.62;19.80
65359;BME280;52491;45.900;6.346;2023-01-29T04:41:35;94345.84;;;22.60;19.77
65359;BME280;52491;45.900;6.346;2023-01-29T04:44:27;94340.03;;;22.63;19.75
65359;BME280;52491;45.900;6.346;2023-01-29T04:50:19;94338.94;;;22.59;19.75
65359;BME280;52491;45.900;6.346;2023-01-29T04:58:44;94342.16;;;22.61;19.83
65359;BME280;52491;45.900;6.346;2023-01-29T05:01:13;94343.44;;;22.58;19.74
65359;BME280;52491;45.900;6.346;2023-01-29T05:03:42;94336.00;;;22.60;19.63
65359;BME280;52491;45.900;6.346;2023-01-29T05:06:10;94348.28;;;22.61;19.60
65359;BME280;52491;45.900;6.346;2023-01-29T05:08:37;94341.31;;;22.60;19.69
65359;BME280;52491;45.900;6.346;2023-01-29T05:11:03;94349.06;;;22.62;19.64
65359;BME280;52491;45.900;6.346;2023-01-29T05:13:31;94343.75;;;22.62;19.49
65359;BME280;52491;45.900;6.346;2023-01-29T05:16:03;94342.16;;;22.61;19.68
65359;BME280;52491;45.900;6.346;2023-01-29T05:18:30;94336.59;;;22.62;19.60
65359;BME280;52491;45.900;6.346;2023-01-29T05:21:00;94342.69;;;22.63;19.57
65359;BME280;52491;45.900;6.346;2023-01-29T05:23:27;94343.75;;;22.62;19.55
65359;BME280;52491;45.900;6.346;2023-01-29T05:25:53;94348.03;;;22.63;19.53
65359;BME280;52491;45.900;6.346;2023-01-29T05:28:18;94352.31;;;22.64;19.56
65359;BME280;52491;45.900;6.346;2023-01-29T05:30:46;94353.91;;;22.65;19.52
65359;BME280;52491;45.900;6.346;2023-01-29T05:33:20;94353.69;;;22.66;19.54
65359;BME280;52491;45.900;6.346;2023-01-29T05:35:46;94359.22;;;22.65;19.62
65359;BME280;52491;45.900;6.346;2023-01-29T05:38:13;94362.69;;;22.65;19.48
65359;BME280;52491;45.900;6.346;2023-01-29T05:40:39;94364.31;;;22.66;19.52
65359;BME280;52491;45.900;6.346;2023-01-29T05:43:05;94370.44;;;22.67;19.62
65359;BME280;52491;45.900;6.346;2023-01-29T05:45:38;94368.78;;;22.66;19.54
65359;BME280;52491;45.900;6.346;2023-01-29T05:48:04;94378.63;;;22.65;19.50
65359;BME280;52491;45.900;6.346;2023-01-29T05:50:29;94381.28;;;22.65;19.50
65359;BME280;52491;45.900;6.346;2023-01-29T05:52:57;94376.78;;;22.66;19.46
65359;BME280;52491;45.900;6.346;2023-01-29T05:55:22;94381.84;;;22.67;19.47
65359;BME280;52491;45.900;6.346;2023-01-29T05:57:48;94384.53;;;22.67;19.45
65359;BME280;52491;45.900;6.346;2023-01-29T06:00:14;94387.97;;;22.68;19.50
65359;BME280;52491;45.900;6.346;2023-01-29T06:02:39;94393.28;;;22.68;19.36
65359;BME280;52491;45.900;6.346;2023-01-29T06:05:05;94394.09;;;22.68;19.50
65359;BME280;52491;45.900;6.346;2023-01-29T06:07:31;94393.06;;;22.69;19.47
65359;BME280;52491;45.900;6.346;2023-01-29T06:09:56;94399.19;;;22.70;19.35
65359;BME280;52491;45.900;6.346;2023-01-29T06:12:22;94406.09;;;22.71;19.50
65359;BME280;52491;45.900;6.346;2023-01-29T06:14:48;94421.25;;;22.70;19.52
65359;BME280;52491;45.900;6.346;2023-01-29T06:17:13;94422.88;;;22.71;19.50
65359;BME280;52491;45.900;6.346;2023-01-29T06:19:39;94418.38;;;22.72;19.45
65359;BME280;52491;45.900;6.346;2023-01-29T06:22:04;94434.31;;;22.72;19.49
65359;BME280;52491;45.900;6.346;2023-01-29T06:24:30;94439.63;;;22.72;19.49
65359;BME280;52491;45.900;6.346;2023-01-29T06:26:57;94445.16;;;22.70;19.52
65359;BME280;52491;45.900;6.346;2023-01-29T06:29:22;94443.31;;;22.71;19.57
65359;BME280;52491;45.900;6.346;2023-01-29T06:31:48;94450.75;;;22.69;19.68
65359;BME280;52491;45.900;6.346;2023-01-29T06:34:13;94457.66;;;22.70;19.63
65359;BME280;52491;45.900;6.346;2023-01-29T06:36:39;94463.56;;;22.72;19.64
65359;BME280;52491;45.900;6.346;2023-01-29T06:39:06;94461.69;;;22.72;19.75
65359;BME280;52491;45.900;6.346;2023-01-29T06:41:31;94464.09;;;22.74;19.84
65359;BME280;52491;45.900;6.346;2023-01-29T06:43:57;94470.25;;;22.74;19.73
65359;BME280;52491;45.900;6.346;2023-01-29T06:46:23;94458.56;;;22.75;19.60
65359;BME280;52491;45.900;6.346;2023-01-29T06:48:48;94461.00;;;22.77;19.71
65359;BME280;52491;45.900;6.346;2023-01-29T06:51:14;94466.06;;;22.78;19.63
65359;BME280;52491;45.900;6.346;2023-01-29T06:53:40;94461.53;;;22.79;19.75
65359;BME280;52491;45.900;6.346;2023-01-29T06:56:07;94463.97;;;22.81;19.62
65359;BME280;52491;45.900;6.346;2023-01-29T06:58:37;94463.72;;;22.82;19.73
65359;BME280;52491;45.900;6.346;2023-01-29T07:01:08;94464.78;;;22.81;19.78
65359;BME280;52491;45.900;6.346;2023-01-29T07:03:33;94470.09;;;22.81;19.86
65359;BME280;52491;45.900;6.346;2023-01-29T07:05:59;94467.22;;;22.83;19.75
65359;BME280;52491;45.900;6.346;2023-01-29T07:08:25;94467.22;;;22.83;19.79
65359;BME280;52491;45.900;6.346;2023-01-29T07:10:51;94474.13;;;22.84;19.87
65359;BME280;52491;45.900;6.346;2023-01-29T07:13:16;94473.31;;;22.83;19.81
65359;BME280;52491;45.900;6.346;2023-01-29T07:15:42;94478.66;;;22.83;19.88
65359;BME280;52491;45.900;6.346;2023-01-29T07:18:09;94478.66;;;22.83;20.09
65359;BME280;52491;45.900;6.346;2023-01-29T07:20:41;94488.47;;;22.83;20.05
65359;BME280;52491;45.900;6.346;2023-01-29T07:23:11;94494.81;;;22.82;20.32
65359;BME280;52491;45.900;6.346;2023-01-29T07:25:37;94491.03;;;22.77;20.46
65359;BME280;52491;45.900;6.346;2023-01-29T07:28:03;94494.72;;;22.76;20.51
65359;BME280;52491;45.900;6.346;2023-01-29T07:30:29;94508.84;;;22.77;20.57
65359;BME280;52491;45.900;6.346;2023-01-29T07:33:00;94516.81;;;22.77;20.58
65359;BME280;52491;45.900;6.346;2023-01-29T07:35:26;94526.88;;;22.75;20.47
65359;BME280;52491;45.900;6.346;2023-01-29T07:37:51;94526.88;;;22.75;20.75
65359;BME280;52491;45.900;6.346;2023-01-29T07:40:17;94518.88;;;22.75;20.69
65359;BME280;52491;45.900;6.346;2023-01-29T07:42:43;94525.22;;;22.74;20.79
65359;BME280;52491;45.900;6.346;2023-01-29T07:45:10;94517.03;;;22.75;20.80
65359;BME280;52491;45.900;6.346;2023-01-29T07:47:36;94525.59;;;22.77;20.80
65359;BME280;52491;45.900;6.346;2023-01-29T07:50:03;94522.19;;;22.82;20.83
65359;BME280;52491;45.900;6.346;2023-01-29T07:52:30;94521.19;;;22.83;20.87
65359;BME280;52491;45.900;6.346;2023-01-29T07:54:56;94513.69;;;22.80;20.95
65359;BME280;52491;45.900;6.346;2023-01-29T07:57:23;94504.06;;;22.79;21.08
65359;BME280;52491;45.900;6.346;2023-01-29T07:59:49;94508.84;;;22.77;21.19
65359;BME280;52491;45.900;6.346;2023-01-29T08:02:15;94507.19;;;22.76;21.17
65359;BME280;52491;45.900;6.346;2023-01-29T08:04:41;94508.84;;;22.77;21.39
65359;BME280;52491;45.900;6.346;2023-01-29T08:07:07;94515.75;;;22.78;21.34
65359;BME280;52491;45.900;6.346;2023-01-29T08:09:34;94509.88;;;22.76;21.45
65359;BME280;52491;45.900;6.346;2023-01-29T08:12:00;94495.78;;;22.75;21.34
65359;BME280;52491;45.900;6.346;2023-01-29T08:14:26;94491.25;;;22.76;21.37
65359;BME280;52491;45.900;6.346;2023-01-29T08:16:51;94501.88;;;22.76;21.53
65359;BME280;52491;45.900;6.346;2023-01-29T08:19:17;94494.50;;;22.78;21.37
65359;BME280;52491;45.900;6.346;2023-01-29T08:21:43;94499.09;;;22.83;21.46
65359;BME280;52491;45.900;6.346;2023-01-29T08:24:10;94502.31;;;22.85;21.45
65359;BME280;52491;45.900;6.346;2023-01-29T08:26:37;94491.94;;;22.83;21.30
65359;BME280;52491;45.900;6.346;2023-01-29T08:29:04;94490.31;;;22.82;21.40
65359;BME280;52491;45.900;6.346;2023-01-29T08:31:30;94484.19;;;22.82;21.39
65359;BME280;52491;45.900;6.346;2023-01-29T08:33:57;94477.00;;;22.82;21.34
65359;BME280;52491;45.900;6.346;2023-01-29T08:36:24;94474.94;;;22.84;21.37
65359;BME280;52491;45.900;6.346;2023-01-29T08:38:52;94471.22;;;22.85;21.57
65359;BME280;52491;45.900;6.346;2023-01-29T08:41:18;94480.25;;;22.84;21.41
65359;BME280;52491;45.900;6.346;2023-01-29T08:43:46;94475.19;;;22.83;21.49
65359;BME280;52491;45.900;6.346;2023-01-29T08:46:13;94476.53;;;22.85;21.67
65359;BME280;52491;45.900;6.346;2023-01-29T08:48:38;94480.25;;;22.84;21.65
65359;BME280;52491;45.900;6.346;2023-01-29T08:51:04;94477.38;;;22.86;21.72
65359;BME280;52491;45.900;6.346;2023-01-29T08:53:30;94485.88;;;22.88;21.77
65359;BME280;52491;45.900;6.346;2023-01-29T08:55:56;94477.69;;;22.89;21.71
65359;BME280;52491;45.900;6.346;2023-01-29T08:58:22;94481.94;;;22.90;21.62
65359;BME280;52491;45.900;6.346;2023-01-29T09:00:48;94480.34;;;22.89;21.71
65359;BME280;52491;45.900;6.346;2023-01-29T09:03:13;94480.91;;;22.91;21.66
65359;BME280;52491;45.900;6.346;2023-01-29T09:05:40;94483.00;;;22.89;21.65
65359;BME280;52491;45.900;6.346;2023-01-29T09:08:07;94488.31;;;22.89;21.71
65359;BME280;52491;45.900;6.346;2023-01-29T09:10:34;94499.19;;;22.88;21.70
65359;BME280;52491;45.900;6.346;2023-01-29T09:13:00;94492.47;;;22.85;21.82
65359;BME280;52491;45.900;6.346;2023-01-29T09:15:26;94500.47;;;22.85;21.97
65359;BME280;52491;45.900;6.346;2023-01-29T09:17:52;94506.69;;;22.91;21.86
65359;BME280;52491;45.900;6.346;2023-01-29T09:20:18;94501.13;;;22.92;21.84
65359;BME280;52491;45.900;6.346;2023-01-29T09:22:44;94498.47;;;22.92;21.92
65359;BME280;52491;45.900;6.346;2023-01-29T09:25:10;94508.53;;;22.90;21.92
65359;BME280;52491;45.900;6.346;2023-01-29T09:27:36;94507.72;;;22.90;22.06
65359;BME280;52491;45.900;6.346;2023-01-29T09:30:03;94509.13;;;22.92;21.97
65359;BME280;52491;45.900;6.346;2023-01-29T09:32:30;94502.75;;;22.93;21.98
65359;BME280;52491;45.900;6.346;2023-01-29T09:34:56;94517.66;;;22.94;21.87
65359;BME280;52491;45.900;6.346;2023-01-29T09:37:22;94522.28;;;22.99;21.81
65359;BME280;52491;45.900;6.346;2023-01-29T09:39:51;94513.28;;;23.00;21.73
65359;BME280;52491;45.900;6.346;2023-01-29T09:42:30;94518.13;;;23.03;21.81
65359;BME280;52491;45.900;6.346;2023-01-29T09:45:23;94516.75;;;23.00;21.86
65359;BME280;52491;45.900;6.346;2023-01-29T09:47:49;94515.13;;;22.99;21.96
65359;BME280;52491;45.900;6.346;2023-01-29T09:50:18;94521.00;;;23.01;21.96
65359;BME280;52491;45.900;6.346;2023-01-29T09:55:32;94513.69;;;23.09;21.82
65359;BME280;52491;45.900;6.346;2023-01-29T09:58:04;94521.78;;;23.14;21.84
65359;BME280;52491;45.900;6.346;2023-01-29T10:07:01;94513.78;;;23.14;21.85
65359;BME280;52491;45.900;6.346;2023-01-29T10:15:03;94523.22;;;23.21;21.77
65359;BME280;52491;45.900;6.346;2023-01-29T10:20:27;94515.81;;;23.23;22.02
65359;BME280;52491;45.900;6.346;2023-01-29T10:23:06;94523.56;;;23.25;22.10
65359;BME280;52491;45.900;6.346;2023-01-29T10:25:39;94523.78;;;23.23;22.19
65359;BME280;52491;45.900;6.346;2023-01-29T10:30:53;94519.28;;;23.24;22.30
65359;BME280;52491;45.900;6.346;2023-01-29T10:33:36;94520.91;;;23.25;22.27
65359;BME280;52491;45.900;6.346;2023-01-29T10:36:07;94528.88;;;23.25;22.41
65359;BME280;52491;45.900;6.346;2023-01-29T10:38:36;94524.38;;;23.26;22.52
65359;BME280;52491;45.900;6.346;2023-01-29T10:44:04;94515.69;;;23.30;22.24
65359;BME280;52491;45.900;6.346;2023-01-29T10:46:49;94522.13;;;23.34;22.27
65359;BME280;52491;45.900;6.346;2023-01-29T11:00:21;94520.66;;;23.43;22.47
65359;BME280;52491;45.900;6.346;2023-01-29T11:02:49;94513.50;;;23.44;22.43
65359;BME280;52491;45.900;6.346;2023-01-29T11:08:01;94513.84;;;23.48;22.50
65359;BME280;52491;45.900;6.346;2023-01-29T11:10:29;94514.06;;;23.46;22.43
65359;BME280;52491;45.900;6.346;2023-01-29T11:12:58;94508.16;;;23.44;22.55
65359;BME280;52491;45.900;6.346;2023-01-29T11:15:28;94507.94;;;23.45;22.55
65359;BME280;52491;45.900;6.346;2023-01-29T11:18:11;94504.78;;;23.49;22.36
65359;BME280;52491;45.900;6.346;2023-01-29T11:20:41;94498.66;;;23.48;22.40
65359;BME280;52491;45.900;6.346;2023-01-29T11:23:34;94497.13;;;23.52;22.34
65359;BME280;52491;45.900;6.346;2023-01-29T11:26:11;94491.00;;;23.52;22.15
65359;BME280;52491;45.900;6.346;2023-01-29T11:28:45;94496.63;;;23.55;22.58
65359;BME280;52491;45.900;6.346;2023-01-29T11:31:21;94494.81;;;23.56;22.52
65359;BME280;52491;45.900;6.346;2023-01-29T11:33:49;94494.56;;;23.57;22.55
65359;BME280;52491;45.900;6.346;2023-01-29T11:36:31;94493.25;;;23.60;22.47
65359;BME280;52491;45.900;6.346;2023-01-29T11:39:26;94498.34;;;23.61;22.47
65359;BME280;52491;45.900;6.346;2023-01-29T11:44:26;94496.00;;;23.65;22.33
65359;BME280;52491;45.900;6.346;2023-01-29T11:46:52;94488.25;;;23.63;22.45
65359;BME280;52491;45.900;6.346;2023-01-29T11:49:37;94489.63;;;23.66;22.31
65359;BME280;52491;45.900;6.346;2023-01-29T11:52:06;94492.06;;;23.67;22.56
65359;BME280;52491;45.900;6.346;2023-01-29T11:54:37;94486.47;;;23.69;22.63
65359;BME280;52491;45.900;6.346;2023-01-29T11:57:04;94499.78;;;23.69;22.76
65359;BME280;52491;45.900;6.346;2023-01-29T11:59:42;94495.88;;;23.72;22.60
65359;BME280;52491;45.900;6.346;2023-01-29T12:02:17;94493.66;;;23.68;22.44
65359;BME280;52491;45.900;6.346;2023-01-29T12:04:44;94490.78;;;23.70;22.69
65359;BME280;52491;45.900;6.346;2023-01-29T12:07:16;94491.13;;;23.74;22.72
65359;BME280;52491;45.900;6.346;2023-01-29T12:09:51;94490.88;;;23.75;22.94
65359;BME280;52491;45.900;6.346;2023-01-29T12:12:30;94485.56;;;23.75;22.82
65359;BME280;52491;45.900;6.346;2023-01-29T12:15:22;94485.06;;;23.78;22.88
65359;BME280;52491;45.900;6.346;2023-01-29T12:20:52;94478.13;;;23.77;22.85
65359;BME280;52491;45.900;6.346;2023-01-29T12:23:30;94478.91;;;23.78;22.90
65359;BME280;52491;45.900;6.346;2023-01-29T12:26:05;94471.50;;;23.80;23.06
65359;BME280;52491;45.900;6.346;2023-01-29T12:28:43;94464.31;;;23.80;23.17
65359;BME280;52491;45.900;6.346;2023-01-29T12:37:10;94448.34;;;23.80;23.52
65359;BME280;52491;45.900;6.346;2023-01-29T12:39:38;94440.59;;;23.79;23.40
65359;BME280;52491;45.900;6.346;2023-01-29T12:42:29;94447.31;;;23.81;23.42
65359;BME280;52491;45.900;6.346;2023-01-29T12:45:06;94434.53;;;23.83;23.56
65359;BME280;52491;45.900;6.346;2023-01-29T12:47:41;94429.19;;;23.83;23.50
65359;BME280;52491;45.900;6.346;2023-01-29T12:55:20;94429.53;;;23.87;23.77
65359;BME280;52491;45.900;6.346;2023-01-29T12:57:59;94420.50;;;23.88;23.72
65359;BME280;52491;45.900;6.346;2023-01-29T13:00:36;94419.19;;;23.90;23.84
65359;BME280;52491;45.900;6.346;2023-01-29T13:03:16;94416.31;;;23.92;23.75
65359;BME280;52491;45.900;6.346;2023-01-29T13:05:53;94405.38;;;23.94;23.83
65359;BME280;52491;45.900;6.346;2023-01-29T13:11:08;94397.97;;;23.96;23.66
65359;BME280;52491;45.900;6.346;2023-01-29T13:13:51;94396.91;;;23.97;23.65
65359;BME280;52491;45.900;6.346;2023-01-29T13:16:21;94400.13;;;23.99;23.63
65359;BME280;52491;45.900;6.346;2023-01-29T13:18:49;94394.00;;;23.98;23.59
65359;BME280;52491;45.900;6.346;2023-01-29T13:21:21;94390.03;;;24.01;23.42
65359;BME280;52491;45.900;6.346;2023-01-29T13:23:50;94387.91;;;24.03;23.69
65359;BME280;52491;45.900;6.346;2023-01-29T13:26:18;94383.66;;;24.02;23.26
65359;BME280;52491;45.900;6.346;2023-01-29T13:28:45;94381.56;;;24.04;23.03
65359;BME280;52491;45.900;6.346;2023-01-29T13:31:29;94381.63;;;24.09;23.07
65359;BME280;52491;45.900;6.346;2023-01-29T13:34:19;94377.91;;;24.10;23.10
65359;BME280;52491;45.900;6.346;2023-01-29T13:36:58;94381.34;;;24.10;23.00
65359;BME280;52491;45.900;6.346;2023-01-29T13:39:29;94385.88;;;24.10;22.90
65359;BME280;52491;45.900;6.346;2023-01-29T13:41:58;94380.56;;;24.10;22.99
65359;BME280;52491;45.900;6.346;2023-01-29T13:44:28;94390.16;;;24.11;23.07
65359;BME280;52491;45.900;6.346;2023-01-29T13:47:08;94388.53;;;24.10;22.95
65359;BME280;52491;45.900;6.346;2023-01-29T13:49:40;94396.78;;;24.08;23.00
65359;BME280;52491;45.900;6.346;2023-01-29T13:52:43;94399.78;;;24.12;23.04
65359;BME280;52491;45.900;6.346;2023-01-29T13:57:49;94400.00;;;24.10;23.16
65359;BME280;52491;45.900;6.346;2023-01-29T14:10:33;94400.31;;;24.14;22.89
65359;BME280;52491;45.900;6.346;2023-01-29T14:15:30;94402.72;;;24.16;22.90
65359;BME280;52491;45.900;6.346;2023-01-29T14:25:50;94399.00;;;24.17;22.72
65359;BME280;52491;45.900;6.346;2023-01-29T14:28:21;94395.84;;;24.20;22.82
65359;BME280;52491;45.900;6.346;2023-01-29T14:30:49;94398.78;;;24.18;22.97
65359;BME280;52491;45.900;6.346;2023-01-29T14:36:16;94396.09;;;24.18;22.66
65359;BME280;52491;45.900;6.346;2023-01-29T14:38:49;94404.41;;;24.22;22.93
65359;BME280;52491;45.900;6.346;2023-01-29T14:43:43;94400.38;;;24.19;22.80
65359;BME280;52491;45.900;6.346;2023-01-29T14:49:02;94395.53;;;24.16;22.84
65359;BME280;52491;45.900;6.346;2023-01-29T14:51:33;94405.69;;;24.19;22.78
65359;BME280;52491;45.900;6.346;2023-01-29T14:54:32;94402.00;;;24.20;22.88
65359;BME280;52491;45.900;6.346;2023-01-29T14:57:02;94402.22;;;24.19;22.60
65359;BME280;52491;45.900;6.346;2023-01-29T15:00:03;94406.50;;;24.20;22.70
65359;BME280;52491;45.900;6.346;2023-01-29T15:02:37;94401.94;;;24.15;22.78
65359;BME280;52491;45.900;6.346;2023-01-29T15:05:06;94402.16;;;24.13;23.04
65359;BME280;52491;45.900;6.346;2023-01-29T15:10:28;94404.28;;;24.11;23.07
65359;BME280;52491;45.900;6.346;2023-01-29T15:16:01;94404.75;;;24.08;23.16
65359;BME280;52491;45.900;6.346;2023-01-29T15:18:42;94408.25;;;24.09;23.06
65359;BME280;52491;45.900;6.346;2023-01-29T15:21:12;94412.75;;;24.08;23.08
65359;BME280;52491;45.900;6.346;2023-01-29T15:23:39;94411.16;;;24.07;23.05
65359;BME280;52491;45.900;6.346;2023-01-29T15:26:09;94413.03;;;24.07;23.13